sensor_id;sensor_type;location;lat;lon;timestamp;pressure;altitude;pressure_sealevel;temperature;humidity
72961;BME280;61141;46.204;19.774;2023-04-07T00:01:40;100254.75;;;4.07;92.79
72961;BME280;61141;46.204;19.774;2023-04-07T00:04:44;100254.88;;;4.11;93.29
72961;BME280;61141;46.204;19.774;2023-04-07T00:07:47;100240.34;;;4.15;93.21
72961;BME280;61141;46.204;19.774;2023-04-07T00:10:59;100244.75;;;3.99;93.88
72961;BME280;61141;46.204;19.774;2023-04-07T00:14:01;100247.72;;;4.06;93.30
72961;BME280;61141;46.204;19.774;2023-04-07T00:17:05;100242.97;;;4.03;93.84
72961;BME280;61141;46.204;19.774;2023-04-07T00:20:08;100245.84;;;3.98;94.26
72961;BME280;61141;46.204;19.774;2023-04-07T00:23:12;100244.13;;;3.94;94.51
72961;BME280;61141;46.204;19.774;2023-04-07T00:26:15;100242.03;;;3.99;94.07
72961;BME280;61141;46.204;19.774;2023-04-07T00:29:18;100238.75;;;4.14;93.51
72961;BME280;61141;46.204;19.774;2023-04-07T00:32:21;100236.75;;;4.03;93.90
72961;BME280;61141;46.204;19.774;2023-04-07T00:35:24;100239.41;;;4.11;93.54
72961;BME280;61141;46.204;19.774;2023-04-07T00:38:27;100246.91;;;4.06;93.63
72961;BME280;61141;46.204;19.774;2023-04-07T00:41:33;100243.50;;;4.18;93.40
72961;BME280;61141;46.204;19.774;2023-04-07T00:44:36;100238.09;;;4.18;93.46
72961;BME280;61141;46.204;19.774;2023-04-07T00:47:39;100237.16;;;4.13;93.81
72961;BME280;61141;46.204;19.774;2023-04-07T00:50:44;100240.53;;;4.10;93.92
72961;BME280;61141;46.204;19.774;2023-04-07T00:53:48;100234.25;;;4.19;93.24
72961;BME280;61141;46.204;19.774;2023-04-07T00:56:51;100242.41;;;4.19;93.56
72961;BME280;61141;46.204;19.774;2023-04-07T01:00:00;100240.72;;;4.05;94.12
72961;BME280;61141;46.204;19.774;2023-04-07T01:03:13;100229.41;;;4.03;93.72
72961;BME280;61141;46.204;19.774;2023-04-07T01:06:23;100236.97;;;4.19;93.81
72961;BME280;61141;46.204;19.774;2023-04-07T01:09:41;100240.84;;;4.09;93.34
72961;BME280;61141;46.204;19.774;2023-04-07T01:13:05;100248.66;;;3.81;94.43
72961;BME280;61141;46.204;19.774;2023-04-07T01:16:12;100244.00;;;3.52;95.83
72961;BME280;61141;46.204;19.774;2023-04-07T01:19:39;100235.81;;;3.70;94.75
72961;BME280;61141;46.204;19.774;2023-04-07T01:22:54;100235.12;;;3.43;95.25
72961;BME280;61141;46.204;19.774;2023-04-07T01:26:19;100243.16;;;3.69;94.76
72961;BME280;61141;46.204;19.774;2023-04-07T01:29:28;100240.19;;;3.91;94.73
72961;BME280;61141;46.204;19.774;2023-04-07T01:32:35;100244.09;;;4.02;94.27
72961;BME280;61141;46.204;19.774;2023-04-07T01:35:40;100238.31;;;3.83;94.52
72961;BME280;61141;46.204;19.774;2023-04-07T01:38:44;100231.75;;;3.84;94.12
72961;BME280;61141;46.204;19.774;2023-04-07T01:41:48;100229.09;;;3.76;94.87
72961;BME280;61141;46.204;19.774;2023-04-07T01:44:55;100231.97;;;3.33;96.69
72961;BME280;61141;46.204;19.774;2023-04-07T01:47:59;100220.44;;;3.53;95.96
72961;BME280;61141;46.204;19.774;2023-04-07T01:51:04;100230.03;;;3.50;96.27
72961;BME280;61141;46.204;19.774;2023-04-07T01:54:07;100219.69;;;3.44;96.40
72961;BME280;61141;46.204;19.774;2023-04-07T01:57:11;100222.19;;;3.49;96.79
72961;BME280;61141;46.204;19.774;2023-04-07T02:00:15;100221.34;;;3.66;95.55
72961;BME280;61141;46.204;19.774;2023-04-07T02:03:23;100221.91;;;3.50;95.57
72961;BME280;61141;46.204;19.774;2023-04-07T02:06:42;100226.31;;;3.55;95.47
72961;BME280;61141;46.204;19.774;2023-04-07T02:09:48;100224.13;;;3.48;95.53
72961;BME280;61141;46.204;19.774;2023-04-07T02:12:52;100216.63;;;3.45;95.64
72961;BME280;61141;46.204;19.774;2023-04-07T02:15:57;100233.03;;;3.49;95.59
72961;BME280;61141;46.204;19.774;2023-04-07T02:19:00;100229.19;;;3.59;94.38
72961;BME280;61141;46.204;19.774;2023-04-07T02:22:05;100229.78;;;3.64;94.47
72961;BME280;61141;46.204;19.774;2023-04-07T02:25:29;100228.66;;;3.65;94.60
72961;BME280;61141;46.204;19.774;2023-04-07T02:28:32;100228.47;;;3.70;94.84
72961;BME280;61141;46.204;19.774;2023-04-07T02:31:35;100224.28;;;3.81;94.70
72961;BME280;61141;46.204;19.774;2023-04-07T02:34:38;100226.81;;;3.86;94.27
72961;BME280;61141;46.204;19.774;2023-04-07T02:37:42;100230.44;;;3.90;94.39
72961;BME280;61141;46.204;19.774;2023-04-07T02:40:45;100230.28;;;3.87;93.75
72961;BME280;61141;46.204;19.774;2023-04-07T02:43:47;100222.47;;;3.94;93.74
72961;BME280;61141;46.204;19.774;2023-04-07T02:46:50;100228.16;;;3.72;93.59
72961;BME280;61141;46.204;19.774;2023-04-07T02:49:53;100228.53;;;3.91;93.08
72961;BME280;61141;46.204;19.774;2023-04-07T02:52:56;100227.84;;;3.65;94.09
72961;BME280;61141;46.204;19.774;2023-04-07T02:55:58;100224.94;;;3.78;93.88
72961;BME280;61141;46.204;19.774;2023-04-07T02:59:02;100228.44;;;3.79;94.34
72961;BME280;61141;46.204;19.774;2023-04-07T03:02:06;100228.91;;;3.81;93.97
72961;BME280;61141;46.204;19.774;2023-04-07T03:05:10;100232.25;;;3.86;93.35
72961;BME280;61141;46.204;19.774;2023-04-07T03:08:13;100226.97;;;3.81;93.05
72961;BME280;61141;46.204;19.774;2023-04-07T03:11:16;100235.09;;;3.81;93.53
72961;BME280;61141;46.204;19.774;2023-04-07T03:14:20;100225.22;;;3.85;92.65
72961;BME280;61141;46.204;19.774;2023-04-07T03:17:23;100215.03;;;3.82;91.94
72961;BME280;61141;46.204;19.774;2023-04-07T03:20:26;100222.16;;;3.87;92.63
72961;BME280;61141;46.204;19.774;2023-04-07T03:23:32;100223.63;;;3.84;92.90
72961;BME280;61141;46.204;19.774;2023-04-07T03:26:35;100227.66;;;3.78;93.27
72961;BME280;61141;46.204;19.774;2023-04-07T03:29:39;100234.66;;;3.79;92.96
72961;BME280;61141;46.204;19.774;2023-04-07T03:32:44;100231.66;;;3.72;93.64
72961;BME280;61141;46.204;19.774;2023-04-07T03:35:47;100234.38;;;3.72;93.71
72961;BME280;61141;46.204;19.774;2023-04-07T03:38:51;100238.38;;;3.66;94.49
72961;BME280;61141;46.204;19.774;2023-04-07T03:41:54;100233.94;;;3.91;93.66
72961;BME280;61141;46.204;19.774;2023-04-07T03:45:00;100229.41;;;3.74;94.04
72961;BME280;61141;46.204;19.774;2023-04-07T03:48:05;100231.03;;;3.75;93.75
72961;BME280;61141;46.204;19.774;2023-04-07T03:51:15;100232.59;;;3.76;93.93
72961;BME280;61141;46.204;19.774;2023-04-07T03:54:19;100234.94;;;3.86;93.32
72961;BME280;61141;46.204;19.774;2023-04-07T03:57:23;100240.63;;;3.64;94.06
72961;BME280;61141;46.204;19.774;2023-04-07T04:00:28;100248.72;;;3.73;94.01
72961;BME280;61141;46.204;19.774;2023-04-07T04:03:34;100247.44;;;3.70;94.40
72961;BME280;61141;46.204;19.774;2023-04-07T04:06:38;100239.69;;;3.60;94.53
72961;BME280;61141;46.204;19.774;2023-04-07T04:09:42;100248.78;;;3.55;95.20
72961;BME280;61141;46.204;19.774;2023-04-07T04:12:48;100244.56;;;3.75;94.10
72961;BME280;61141;46.204;19.774;2023-04-07T04:15:52;100244.78;;;3.62;94.95
72961;BME280;61141;46.204;19.774;2023-04-07T04:18:55;100238.62;;;3.44;95.20
72961;BME280;61141;46.204;19.774;2023-04-07T04:21:58;100243.22;;;3.52;95.33
72961;BME280;61141;46.204;19.774;2023-04-07T04:25:02;100252.31;;;3.47;95.74
72961;BME280;61141;46.204;19.774;2023-04-07T04:28:05;100258.50;;;3.48;95.80
72961;BME280;61141;46.204;19.774;2023-04-07T04:31:09;100262.19;;;3.43;95.89
72961;BME280;61141;46.204;19.774;2023-04-07T04:34:13;100263.66;;;3.41;95.86
72961;BME280;61141;46.204;19.774;2023-04-07T04:37:16;100254.19;;;3.55;95.35
72961;BME280;61141;46.204;19.774;2023-04-07T04:40:20;100257.37;;;3.58;95.79
72961;BME280;61141;46.204;19.774;2023-04-07T04:43:23;100257.81;;;3.68;95.21
72961;BME280;61141;46.204;19.774;2023-04-07T04:46:26;100260.03;;;3.75;94.94
72961;BME280;61141;46.204;19.774;2023-04-07T04:49:29;100259.97;;;3.83;94.62
72961;BME280;61141;46.204;19.774;2023-04-07T04:52:34;100262.69;;;3.83;95.02
72961;BME280;61141;46.204;19.774;2023-04-07T04:55:37;100260.19;;;3.70;95.50
72961;BME280;61141;46.204;19.774;2023-04-07T04:58:42;100268.66;;;3.60;95.78
72961;BME280;61141;46.204;19.774;2023-04-07T05:01:48;100267.69;;;3.73;95.77
72961;BME280;61141;46.204;19.774;2023-04-07T05:04:52;100274.37;;;3.67;96.25
72961;BME280;61141;46.204;19.774;2023-04-07T05:07:55;100276.56;;;3.73;95.96
72961;BME280;61141;46.204;19.774;2023-04-07T05:10:59;100281.88;;;3.70;96.31
72961;BME280;61141;46.204;19.774;2023-04-07T05:14:04;100275.28;;;3.79;95.33
72961;BME280;61141;46.204;19.774;2023-04-07T05:17:07;100274.22;;;3.72;95.27
72961;BME280;61141;46.204;19.774;2023-04-07T05:20:10;100272.25;;;3.81;94.88
72961;BME280;61141;46.204;19.774;2023-04-07T05:23:15;100283.09;;;3.81;94.64
72961;BME280;61141;46.204;19.774;2023-04-07T05:26:20;100290.81;;;3.62;95.27
72961;BME280;61141;46.204;19.774;2023-04-07T05:29:24;100289.81;;;3.75;95.03
72961;BME280;61141;46.204;19.774;2023-04-07T05:32:27;100298.88;;;3.70;95.35
72961;BME280;61141;46.204;19.774;2023-04-07T05:35:30;100296.34;;;3.74;95.21
72961;BME280;61141;46.204;19.774;2023-04-07T05:38:33;100296.66;;;3.81;95.36
72961;BME280;61141;46.204;19.774;2023-04-07T05:41:37;100302.66;;;3.95;94.51
72961;BME280;61141;46.204;19.774;2023-04-07T05:44:41;100292.84;;;4.11;94.02
72961;BME280;61141;46.204;19.774;2023-04-07T05:47:44;100293.91;;;4.19;93.71
72961;BME280;61141;46.204;19.774;2023-04-07T05:50:50;100298.09;;;4.07;94.30
72961;BME280;61141;46.204;19.774;2023-04-07T05:53:53;100300.78;;;4.16;92.80
72961;BME280;61141;46.204;19.774;2023-04-07T05:56:56;100307.41;;;4.27;92.56
72961;BME280;61141;46.204;19.774;2023-04-07T06:00:01;100308.84;;;4.25;93.25
72961;BME280;61141;46.204;19.774;2023-04-07T06:03:15;100305.66;;;4.23;92.76
72961;BME280;61141;46.204;19.774;2023-04-07T06:06:19;100306.88;;;4.34;92.13
72961;BME280;61141;46.204;19.774;2023-04-07T06:09:22;100308.37;;;4.52;92.78
72961;BME280;61141;46.204;19.774;2023-04-07T06:12:25;100300.22;;;4.52;91.95
72961;BME280;61141;46.204;19.774;2023-04-07T06:15:28;100299.81;;;4.41;91.61
72961;BME280;61141;46.204;19.774;2023-04-07T06:18:31;100313.38;;;4.41;91.69
72961;BME280;61141;46.204;19.774;2023-04-07T06:21:34;100309.88;;;4.41;91.01
72961;BME280;61141;46.204;19.774;2023-04-07T06:24:39;100307.22;;;4.32;90.28
72961;BME280;61141;46.204;19.774;2023-04-07T06:27:42;100303.69;;;4.32;90.52
72961;BME280;61141;46.204;19.774;2023-04-07T06:30:45;100306.16;;;4.45;90.47
72961;BME280;61141;46.204;19.774;2023-04-07T06:33:49;100314.09;;;4.50;91.02
72961;BME280;61141;46.204;19.774;2023-04-07T06:36:52;100304.28;;;4.66;90.32
72961;BME280;61141;46.204;19.774;2023-04-07T06:39:56;100307.84;;;4.79;89.37
72961;BME280;61141;46.204;19.774;2023-04-07T06:42:58;100315.13;;;5.08;89.20
72961;BME280;61141;46.204;19.774;2023-04-07T06:46:02;100311.91;;;5.06;88.40
72961;BME280;61141;46.204;19.774;2023-04-07T06:49:05;100308.75;;;5.04;89.59
72961;BME280;61141;46.204;19.774;2023-04-07T06:52:08;100309.75;;;4.79;89.37
72961;BME280;61141;46.204;19.774;2023-04-07T06:55:11;100317.69;;;4.84;90.15
72961;BME280;61141;46.204;19.774;2023-04-07T06:58:14;100319.75;;;4.87;89.75
72961;BME280;61141;46.204;19.774;2023-04-07T07:01:17;100321.72;;;4.98;90.33
72961;BME280;61141;46.204;19.774;2023-04-07T07:04:20;100324.50;;;4.90;90.57
72961;BME280;61141;46.204;19.774;2023-04-07T07:07:23;100321.34;;;4.88;90.48
72961;BME280;61141;46.204;19.774;2023-04-07T07:10:31;100324.78;;;4.97;90.35
72961;BME280;61141;46.204;19.774;2023-04-07T07:13:35;100333.91;;;4.92;90.72
72961;BME280;61141;46.204;19.774;2023-04-07T07:16:38;100331.69;;;4.94;91.00
72961;BME280;61141;46.204;19.774;2023-04-07T07:19:42;100333.00;;;4.88;91.04
72961;BME280;61141;46.204;19.774;2023-04-07T07:22:45;100332.72;;;5.02;91.07
72961;BME280;61141;46.204;19.774;2023-04-07T07:25:48;100343.53;;;5.22;90.85
72961;BME280;61141;46.204;19.774;2023-04-07T07:28:50;100341.47;;;5.07;90.37
72961;BME280;61141;46.204;19.774;2023-04-07T07:31:53;100338.97;;;5.02;89.36
72961;BME280;61141;46.204;19.774;2023-04-07T07:34:57;100354.63;;;5.17;90.32
72961;BME280;61141;46.204;19.774;2023-04-07T07:38:00;100348.97;;;5.22;89.01
72961;BME280;61141;46.204;19.774;2023-04-07T07:41:04;100353.34;;;5.36;88.80
72961;BME280;61141;46.204;19.774;2023-04-07T07:44:07;100356.66;;;5.20;88.97
72961;BME280;61141;46.204;19.774;2023-04-07T07:47:10;100350.34;;;4.96;89.35
72961;BME280;61141;46.204;19.774;2023-04-07T07:50:15;100351.59;;;4.98;89.15
72961;BME280;61141;46.204;19.774;2023-04-07T07:53:17;100362.53;;;5.10;89.16
72961;BME280;61141;46.204;19.774;2023-04-07T07:56:21;100366.44;;;5.33;87.83
72961;BME280;61141;46.204;19.774;2023-04-07T07:59:23;100364.84;;;5.53;87.39
72961;BME280;61141;46.204;19.774;2023-04-07T08:02:26;100362.19;;;5.45;87.35
72961;BME280;61141;46.204;19.774;2023-04-07T08:05:33;100365.91;;;5.40;86.99
72961;BME280;61141;46.204;19.774;2023-04-07T08:08:36;100368.94;;;5.39;87.01
72961;BME280;61141;46.204;19.774;2023-04-07T08:11:39;100372.25;;;5.44;87.34
72961;BME280;61141;46.204;19.774;2023-04-07T08:14:41;100381.88;;;5.42;88.55
72961;BME280;61141;46.204;19.774;2023-04-07T08:17:44;100373.06;;;5.45;88.04
72961;BME280;61141;46.204;19.774;2023-04-07T08:20:49;100378.91;;;5.34;88.06
72961;BME280;61141;46.204;19.774;2023-04-07T08:23:54;100375.19;;;5.39;88.80
72961;BME280;61141;46.204;19.774;2023-04-07T08:26:57;100372.25;;;5.44;88.33
72961;BME280;61141;46.204;19.774;2023-04-07T08:30:01;100380.31;;;5.53;88.54
72961;BME280;61141;46.204;19.774;2023-04-07T08:33:06;100381.59;;;5.55;87.15
72961;BME280;61141;46.204;19.774;2023-04-07T08:36:09;100374.72;;;5.58;87.09
72961;BME280;61141;46.204;19.774;2023-04-07T08:39:11;100382.31;;;5.64;85.81
72961;BME280;61141;46.204;19.774;2023-04-07T08:42:15;100378.47;;;5.65;87.15
72961;BME280;61141;46.204;19.774;2023-04-07T08:45:19;100376.34;;;5.83;85.67
72961;BME280;61141;46.204;19.774;2023-04-07T08:48:23;100388.22;;;5.99;85.00
72961;BME280;61141;46.204;19.774;2023-04-07T08:51:31;100388.09;;;6.08;84.57
72961;BME280;61141;46.204;19.774;2023-04-07T08:54:34;100388.59;;;5.77;83.32
72961;BME280;61141;46.204;19.774;2023-04-07T08:57:38;100383.78;;;6.07;84.32
72961;BME280;61141;46.204;19.774;2023-04-07T09:00:43;100386.63;;;6.10;83.70
72961;BME280;61141;46.204;19.774;2023-04-07T09:03:48;100388.66;;;6.01;84.64
72961;BME280;61141;46.204;19.774;2023-04-07T09:06:51;100378.81;;;6.09;85.12
72961;BME280;61141;46.204;19.774;2023-04-07T09:09:54;100391.19;;;6.42;83.89
72961;BME280;61141;46.204;19.774;2023-04-07T09:12:58;100391.75;;;6.48;82.80
72961;BME280;61141;46.204;19.774;2023-04-07T09:16:01;100390.94;;;6.47;82.60
72961;BME280;61141;46.204;19.774;2023-04-07T09:19:05;100398.66;;;6.58;82.75
72961;BME280;61141;46.204;19.774;2023-04-07T09:22:08;100388.00;;;6.53;82.11
72961;BME280;61141;46.204;19.774;2023-04-07T09:25:18;100392.75;;;6.56;82.38
72961;BME280;61141;46.204;19.774;2023-04-07T09:28:21;100394.13;;;6.62;81.13
72961;BME280;61141;46.204;19.774;2023-04-07T09:31:44;100393.44;;;6.65;79.47
72961;BME280;61141;46.204;19.774;2023-04-07T09:34:57;100394.00;;;6.58;78.35
72961;BME280;61141;46.204;19.774;2023-04-07T09:41:11;100392.09;;;6.71;77.99
72961;BME280;61141;46.204;19.774;2023-04-07T09:44:15;100399.22;;;6.63;78.67
72961;BME280;61141;46.204;19.774;2023-04-07T09:47:25;100398.66;;;7.22;79.70
72961;BME280;61141;46.204;19.774;2023-04-07T09:50:38;100381.66;;;7.12;77.68
72961;BME280;61141;46.204;19.774;2023-04-07T09:53:48;100397.09;;;7.21;78.33
72961;BME280;61141;46.204;19.774;2023-04-07T09:56:51;100399.09;;;7.24;75.65
72961;BME280;61141;46.204;19.774;2023-04-07T09:59:55;100391.72;;;7.24;76.12
72961;BME280;61141;46.204;19.774;2023-04-07T10:02:59;100396.37;;;7.51;76.46
72961;BME280;61141;46.204;19.774;2023-04-07T10:06:03;100393.06;;;7.58;76.79
72961;BME280;61141;46.204;19.774;2023-04-07T10:09:07;100401.75;;;7.76;77.60
72961;BME280;61141;46.204;19.774;2023-04-07T10:12:10;100399.41;;;7.90;75.56
72961;BME280;61141;46.204;19.774;2023-04-07T10:15:13;100401.94;;;7.98;75.54
72961;BME280;61141;46.204;19.774;2023-04-07T10:18:19;100402.19;;;7.78;76.33
72961;BME280;61141;46.204;19.774;2023-04-07T10:21:22;100399.41;;;7.90;76.08
72961;BME280;61141;46.204;19.774;2023-04-07T10:27:52;100404.16;;;7.65;75.94
72961;BME280;61141;46.204;19.774;2023-04-07T10:30:59;100403.94;;;7.70;74.72
72961;BME280;61141;46.204;19.774;2023-04-07T10:34:03;100395.06;;;7.73;75.63
72961;BME280;61141;46.204;19.774;2023-04-07T10:37:10;100398.53;;;7.58;76.14
72961;BME280;61141;46.204;19.774;2023-04-07T10:43:36;100393.19;;;7.61;75.59
72961;BME280;61141;46.204;19.774;2023-04-07T10:50:19;100393.91;;;7.46;74.61
72961;BME280;61141;46.204;19.774;2023-04-07T10:53:22;100400.44;;;7.30;77.08
72961;BME280;61141;46.204;19.774;2023-04-07T10:56:25;100399.97;;;6.88;76.49
72961;BME280;61141;46.204;19.774;2023-04-07T10:59:30;100395.00;;;6.78;77.87
72961;BME280;61141;46.204;19.774;2023-04-07T11:02:34;100402.50;;;6.93;78.79
72961;BME280;61141;46.204;19.774;2023-04-07T11:05:41;100386.03;;;6.89;77.53
72961;BME280;61141;46.204;19.774;2023-04-07T11:08:46;100400.28;;;7.10;78.59
72961;BME280;61141;46.204;19.774;2023-04-07T11:11:50;100402.00;;;7.15;79.65
72961;BME280;61141;46.204;19.774;2023-04-07T11:14:54;100407.88;;;7.17;77.04
72961;BME280;61141;46.204;19.774;2023-04-07T11:18:17;100374.97;;;7.10;77.88
72961;BME280;61141;46.204;19.774;2023-04-07T11:21:20;100399.25;;;7.15;76.46
72961;BME280;61141;46.204;19.774;2023-04-07T11:24:35;100402.28;;;7.26;76.80
72961;BME280;61141;46.204;19.774;2023-04-07T11:27:43;100394.53;;;7.40;74.50
72961;BME280;61141;46.204;19.774;2023-04-07T11:30:51;100395.94;;;7.49;76.54
72961;BME280;61141;46.204;19.774;2023-04-07T11:34:04;100410.13;;;7.55;74.92
72961;BME280;61141;46.204;19.774;2023-04-07T11:37:21;100406.28;;;7.16;75.57
72961;BME280;61141;46.204;19.774;2023-04-07T11:40:35;100407.13;;;7.32;77.60
72961;BME280;61141;46.204;19.774;2023-04-07T11:43:38;100411.44;;;7.45;77.06
72961;BME280;61141;46.204;19.774;2023-04-07T11:46:53;100406.44;;;7.35;74.69
72961;BME280;61141;46.204;19.774;2023-04-07T11:49:57;100401.69;;;7.32;74.62
72961;BME280;61141;46.204;19.774;2023-04-07T11:53:00;100411.94;;;7.23;75.40
72961;BME280;61141;46.204;19.774;2023-04-07T11:56:11;100413.78;;;7.07;75.70
72961;BME280;61141;46.204;19.774;2023-04-07T11:59:22;100402.44;;;7.05;75.52
72961;BME280;61141;46.204;19.774;2023-04-07T12:02:34;100405.25;;;7.21;76.34
72961;BME280;61141;46.204;19.774;2023-04-07T12:05:43;100403.97;;;7.30;76.65
72961;BME280;61141;46.204;19.774;2023-04-07T12:08:46;100408.75;;;7.21;77.76
72961;BME280;61141;46.204;19.774;2023-04-07T12:11:49;100409.41;;;7.30;77.84
72961;BME280;61141;46.204;19.774;2023-04-07T12:14:52;100402.06;;;7.19;75.36
72961;BME280;61141;46.204;19.774;2023-04-07T12:17:55;100404.00;;;7.18;77.31
72961;BME280;61141;46.204;19.774;2023-04-07T12:20:58;100403.91;;;7.15;75.86
72961;BME280;61141;46.204;19.774;2023-04-07T12:24:01;100403.56;;;7.16;75.21
72961;BME280;61141;46.204;19.774;2023-04-07T12:27:04;100415.16;;;7.41;76.98
72961;BME280;61141;46.204;19.774;2023-04-07T12:30:07;100413.69;;;7.43;77.94
72961;BME280;61141;46.204;19.774;2023-04-07T12:33:10;100411.06;;;7.47;76.48
72961;BME280;61141;46.204;19.774;2023-04-07T12:36:13;100417.06;;;7.52;76.01
72961;BME280;61141;46.204;19.774;2023-04-07T12:39:15;100412.41;;;7.53;76.77
72961;BME280;61141;46.204;19.774;2023-04-07T12:42:18;100416.81;;;7.57;77.50
72961;BME280;61141;46.204;19.774;2023-04-07T12:45:21;100413.28;;;7.57;76.97
72961;BME280;61141;46.204;19.774;2023-04-07T12:48:24;100425.50;;;7.47;76.41
72961;BME280;61141;46.204;19.774;2023-04-07T12:51:29;100414.13;;;7.05;76.65
72961;BME280;61141;46.204;19.774;2023-04-07T12:54:33;100415.94;;;7.14;78.08
72961;BME280;61141;46.204;19.774;2023-04-07T12:57:36;100428.31;;;7.11;76.98
72961;BME280;61141;46.204;19.774;2023-04-07T13:00:40;100413.75;;;7.19;76.44
72961;BME280;61141;46.204;19.774;2023-04-07T13:03:43;100424.38;;;7.36;76.76
72961;BME280;61141;46.204;19.774;2023-04-07T13:06:46;100419.13;;;7.43;76.09
72961;BME280;61141;46.204;19.774;2023-04-07T13:09:49;100418.81;;;7.45;76.17
72961;BME280;61141;46.204;19.774;2023-04-07T13:12:52;100396.47;;;7.27;76.00
72961;BME280;61141;46.204;19.774;2023-04-07T13:15:55;100416.87;;;7.45;76.26
72961;BME280;61141;46.204;19.774;2023-04-07T13:18:59;100417.47;;;7.66;76.48
72961;BME280;61141;46.204;19.774;2023-04-07T13:22:02;100422.47;;;7.64;73.55
72961;BME280;61141;46.204;19.774;2023-04-07T13:25:08;100428.06;;;7.56;74.04
72961;BME280;61141;46.204;19.774;2023-04-07T13:28:10;100426.19;;;7.44;74.24
72961;BME280;61141;46.204;19.774;2023-04-07T13:31:13;100419.22;;;7.59;74.86
72961;BME280;61141;46.204;19.774;2023-04-07T13:34:17;100412.88;;;7.70;76.12
72961;BME280;61141;46.204;19.774;2023-04-07T13:37:20;100417.31;;;7.75;77.87
72961;BME280;61141;46.204;19.774;2023-04-07T13:40:23;100415.31;;;7.60;76.69
72961;BME280;61141;46.204;19.774;2023-04-07T13:43:26;100417.09;;;7.68;77.13
72961;BME280;61141;46.204;19.774;2023-04-07T13:46:29;100414.47;;;7.44;78.19
72961;BME280;61141;46.204;19.774;2023-04-07T13:49:32;100421.97;;;7.47;76.23
72961;BME280;61141;46.204;19.774;2023-04-07T13:52:35;100426.31;;;7.36;76.67
72961;BME280;61141;46.204;19.774;2023-04-07T13:55:38;100432.88;;;7.47;76.58
72961;BME280;61141;46.204;19.774;2023-04-07T13:58:40;100423.47;;;7.32;78.64
72961;BME280;61141;46.204;19.774;2023-04-07T14:01:44;100422.59;;;7.28;78.97
72961;BME280;61141;46.204;19.774;2023-04-07T14:04:47;100430.34;;;7.26;78.85
72961;BME280;61141;46.204;19.774;2023-04-07T14:07:49;100418.09;;;7.20;78.78
72961;BME280;61141;46.204;19.774;2023-04-07T14:10:53;100430.09;;;7.31;78.36
72961;BME280;61141;46.204;19.774;2023-04-07T14:13:55;100428.16;;;7.32;78.62
72961;BME280;61141;46.204;19.774;2023-04-07T14:16:59;100429.63;;;7.29;79.47
72961;BME280;61141;46.204;19.774;2023-04-07T14:20:01;100430.53;;;7.33;79.39
72961;BME280;61141;46.204;19.774;2023-04-07T14:23:05;100426.50;;;7.15;80.29
72961;BME280;61141;46.204;19.774;2023-04-07T14:26:09;100431.03;;;7.23;80.85
72961;BME280;61141;46.204;19.774;2023-04-07T14:29:13;100426.34;;;7.24;79.90
72961;BME280;61141;46.204;19.774;2023-04-07T14:32:16;100433.87;;;7.15;79.95
72961;BME280;61141;46.204;19.774;2023-04-07T14:35:19;100429.00;;;7.08;80.02
72961;BME280;61141;46.204;19.774;2023-04-07T14:38:22;100426.84;;;7.01;80.74
72961;BME280;61141;46.204;19.774;2023-04-07T14:41:27;100438.34;;;6.95;81.68
72961;BME280;61141;46.204;19.774;2023-04-07T14:44:30;100432.31;;;6.89;80.78
72961;BME280;61141;46.204;19.774;2023-04-07T14:47:33;100434.38;;;6.92;81.40
72961;BME280;61141;46.204;19.774;2023-04-07T14:50:36;100429.91;;;7.00;81.15
72961;BME280;61141;46.204;19.774;2023-04-07T14:53:40;100437.41;;;7.03;80.65
72961;BME280;61141;46.204;19.774;2023-04-07T14:56:47;100430.97;;;6.95;80.17
72961;BME280;61141;46.204;19.774;2023-04-07T14:59:50;100414.84;;;6.90;81.11
72961;BME280;61141;46.204;19.774;2023-04-07T15:02:53;100428.25;;;6.95;80.87
72961;BME280;61141;46.204;19.774;2023-04-07T15:05:57;100428.69;;;6.97;81.06
72961;BME280;61141;46.204;19.774;2023-04-07T15:08:59;100425.72;;;7.02;81.22
72961;BME280;61141;46.204;19.774;2023-04-07T15:12:02;100427.09;;;6.96;81.04
72961;BME280;61141;46.204;19.774;2023-04-07T15:15:06;100425.84;;;7.06;80.57
72961;BME280;61141;46.204;19.774;2023-04-07T15:18:09;100434.25;;;7.01;80.95
72961;BME280;61141;46.204;19.774;2023-04-07T15:21:13;100429.91;;;7.00;80.10
72961;BME280;61141;46.204;19.774;2023-04-07T15:24:16;100430.16;;;6.95;80.40
72961;BME280;61141;46.204;19.774;2023-04-07T15:27:20;100435.81;;;7.02;80.59
72961;BME280;61141;46.204;19.774;2023-04-07T15:30:25;100434.44;;;6.96;81.17
72961;BME280;61141;46.204;19.774;2023-04-07T15:33:27;100431.16;;;7.02;81.68
72961;BME280;61141;46.204;19.774;2023-04-07T15:36:30;100435.12;;;7.05;80.97
72961;BME280;61141;46.204;19.774;2023-04-07T15:39:33;100440.47;;;7.01;81.66
72961;BME280;61141;46.204;19.774;2023-04-07T15:42:36;100433.00;;;6.98;81.03
72961;BME280;61141;46.204;19.774;2023-04-07T15:45:43;100428.91;;;6.92;81.99
72961;BME280;61141;46.204;19.774;2023-04-07T15:48:47;100435.00;;;7.01;80.85
72961;BME280;61141;46.204;19.774;2023-04-07T15:51:49;100434.31;;;7.04;81.30
72961;BME280;61141;46.204;19.774;2023-04-07T15:54:52;100435.94;;;7.05;81.86
72961;BME280;61141;46.204;19.774;2023-04-07T15:57:55;100443.31;;;7.05;80.46
72961;BME280;61141;46.204;19.774;2023-04-07T16:01:00;100435.72;;;6.98;81.24
72961;BME280;61141;46.204;19.774;2023-04-07T16:04:03;100441.63;;;6.88;81.02
72961;BME280;61141;46.204;19.774;2023-04-07T16:07:06;100445.38;;;6.84;81.48
72961;BME280;61141;46.204;19.774;2023-04-07T16:10:09;100430.41;;;6.78;81.21
72961;BME280;61141;46.204;19.774;2023-04-07T16:13:14;100445.03;;;6.85;81.38
72961;BME280;61141;46.204;19.774;2023-04-07T16:16:17;100443.22;;;6.89;81.99
72961;BME280;61141;46.204;19.774;2023-04-07T16:19:20;100454.44;;;7.00;81.30